createdAt,value
2022-08-14T00:02:13.674Z,99.90
2022-08-14T00:04:45.410Z,99.90
2022-08-14T00:07:13.977Z,99.90
2022-08-14T00:09:55.723Z,99.90
2022-08-14T00:12:34.051Z,99.90
2022-08-14T00:15:30.011Z,99.90
2022-08-14T00:18:05.375Z,99.90
2022-08-14T00:20:43.022Z,99.90
2022-08-14T00:23:17.045Z,99.90
2022-08-14T00:25:53.887Z,99.90
2022-08-14T00:28:34.952Z,99.90
2022-08-14T00:31:04.513Z,99.90
2022-08-14T00:33:50.867Z,99.90
2022-08-14T00:36:36.591Z,99.90
2022-08-14T00:39:09.663Z,99.90
2022-08-14T00:41:39.081Z,99.90
2022-08-14T00:44:07.225Z,99.90
2022-08-14T00:46:37.731Z,99.90
2022-08-14T00:49:05.734Z,99.90
2022-08-14T00:51:37.785Z,99.90
2022-08-14T00:54:17.041Z,99.90
2022-08-14T00:56:55.276Z,99.90
2022-08-14T00:59:28.609Z,99.90
2022-08-14T01:01:58.474Z,99.90
2022-08-14T01:04:51.511Z,99.90
2022-08-14T01:07:20.642Z,99.90
2022-08-14T01:09:56.425Z,99.90
2022-08-14T01:12:26.835Z,99.90
2022-08-14T01:14:58.548Z,99.90
2022-08-14T01:17:49.582Z,99.90
2022-08-14T01:20:39.900Z,99.90
2022-08-14T01:23:13.103Z,99.90
2022-08-14T01:25:44.249Z,99.90
2022-08-14T01:28:46.209Z,99.90
2022-08-14T01:31:01.816Z,99.90
2022-08-14T01:33:30.278Z,99.90
2022-08-14T01:36:05.432Z,99.90
2022-08-14T01:38:48.826Z,99.90
2022-08-14T01:41:19.831Z,99.90
2022-08-14T01:43:56.753Z,99.90
2022-08-14T01:46:24.892Z,99.90
2022-08-14T01:48:52.336Z,99.90
2022-08-14T01:51:24.965Z,99.90
2022-08-14T01:53:56.258Z,99.90
2022-08-14T01:56:37.357Z,99.90
2022-08-14T01:59:37.974Z,99.90
2022-08-14T02:02:20.009Z,99.90
2022-08-14T02:04:56.784Z,99.90
2022-08-14T02:07:27.258Z,99.90
2022-08-14T02:10:15.778Z,99.90
2022-08-14T02:12:54.065Z,99.90
2022-08-14T02:15:24.822Z,99.90
2022-08-14T02:17:51.806Z,99.90
2022-08-14T02:20:23.545Z,99.90
2022-08-14T02:22:54.523Z,99.90
2022-08-14T02:25:22.820Z,99.90
2022-08-14T02:28:22.235Z,99.90
2022-08-14T02:30:38.201Z,99.90
2022-08-14T02:33:07.290Z,99.90
2022-08-14T02:35:34.651Z,99.90
2022-08-14T02:38:11.740Z,99.90
2022-08-14T02:40:53.768Z,99.90
2022-08-14T02:43:22.563Z,99.90
2022-08-14T02:45:49.800Z,99.90
2022-08-14T02:49:01.122Z,99.90
2022-08-14T02:51:07.136Z,99.90
2022-08-14T02:53:37.421Z,99.90
2022-08-14T02:56:10.104Z,99.90
2022-08-14T02:58:52.933Z,99.90
2022-08-14T03:01:24.282Z,99.90
2022-08-14T03:03:59.552Z,99.90
2022-08-14T03:06:35.022Z,99.90
2022-08-14T03:09:15.175Z,99.90
2022-08-14T03:11:44.948Z,99.90
2022-08-14T03:14:15.422Z,99.90
2022-08-14T03:16:45.517Z,99.90
2022-08-14T03:19:19.753Z,99.90
2022-08-14T03:21:47.019Z,99.90
2022-08-14T03:24:23.699Z,99.90
2022-08-14T03:26:57.484Z,99.90
2022-08-14T03:29:26.411Z,99.90
2022-08-14T03:31:54.482Z,99.90
2022-08-14T03:34:47.988Z,99.90
2022-08-14T03:37:51.591Z,99.90
2022-08-14T03:40:00.418Z,99.90
2022-08-14T03:42:36.021Z,99.90
2022-08-14T03:45:26.319Z,99.90
2022-08-14T03:48:01.566Z,99.90
2022-08-14T03:50:30.937Z,99.90
2022-08-14T03:53:01.553Z,99.90
2022-08-14T03:55:30.403Z,99.90
2022-08-14T03:58:00.412Z,99.90
2022-08-14T04:00:43.870Z,99.90
2022-08-14T04:03:23.492Z,99.90
2022-08-14T04:05:51.175Z,99.90
2022-08-14T04:08:29.196Z,99.90
2022-08-14T04:11:02.795Z,99.90
2022-08-14T04:13:34.439Z,99.90
2022-08-14T04:16:12.363Z,99.90
2022-08-14T04:18:42.348Z,99.90
2022-08-14T04:21:10.679Z,99.90
2022-08-14T04:23:39.647Z,99.90
2022-08-14T04:26:14.551Z,99.90
2022-08-14T04:29:05.258Z,99.90
2022-08-14T04:33:02.683Z,99.90
2022-08-14T04:34:23.953Z,99.90
2022-08-14T04:37:12.649Z,99.90
2022-08-14T04:39:58.878Z,99.90
2022-08-14T04:42:47.657Z,99.90
2022-08-14T04:45:21.130Z,99.90
2022-08-14T04:48:06.831Z,99.90
2022-08-14T04:50:44.296Z,99.90
2022-08-14T04:53:34.736Z,99.90
2022-08-14T04:56:10.442Z,99.90
2022-08-14T04:58:57.535Z,99.90
2022-08-14T05:01:27.644Z,99.90
2022-08-14T05:03:55.918Z,99.90
2022-08-14T05:06:37.321Z,99.90
2022-08-14T05:09:06.764Z,99.90
2022-08-14T05:11:36.636Z,99.90
2022-08-14T05:14:33.884Z,99.90
2022-08-14T05:16:52.140Z,99.90
2022-08-14T05:19:26.987Z,99.90
2022-08-14T05:22:17.605Z,99.90
2022-08-14T05:24:50.443Z,99.50
2022-08-14T05:27:23.228Z,97.30
2022-08-14T05:29:57.047Z,96.50
2022-08-14T05:32:27.579Z,94.20
2022-08-14T05:34:59.444Z,93.10
2022-08-14T05:37:29.626Z,92.50
2022-08-14T05:39:58.295Z,91.70
2022-08-14T05:42:29.257Z,90.60
2022-08-14T05:44:59.842Z,87.80
2022-08-14T05:47:28.988Z,85.90
2022-08-14T05:50:01.856Z,82.60
2022-08-14T05:52:39.161Z,78.60
2022-08-14T05:55:11.420Z,76.00
2022-08-14T05:57:59.933Z,73.00
2022-08-14T06:03:48.788Z,67.10
2022-08-14T06:06:21.301Z,65.10
2022-08-14T06:08:48.335Z,64.50
2022-08-14T06:11:20.292Z,62.00
2022-08-14T06:13:54.797Z,59.60
2022-08-14T06:16:22.177Z,58.90
2022-08-14T06:18:52.620Z,57.20
2022-08-14T06:21:21.454Z,56.50
2022-08-14T06:23:52.387Z,55.50
2022-08-14T06:26:20.501Z,54.60
2022-08-14T06:28:52.298Z,53.10
2022-08-14T06:31:20.787Z,52.20
2022-08-14T06:35:10.863Z,51.70
2022-08-14T06:36:36.594Z,50.40
2022-08-14T06:39:03.915Z,49.20
2022-08-14T06:41:58.094Z,48.60
2022-08-14T06:44:22.004Z,47.50
2022-08-14T06:46:57.929Z,47.20
2022-08-14T06:49:27.087Z,46.60
2022-08-14T06:51:54.291Z,45.80
2022-08-14T06:54:21.226Z,46.00
2022-08-14T06:56:54.111Z,45.90
2022-08-14T06:59:21.542Z,46.00
2022-08-14T07:02:13.399Z,45.70
2022-08-14T07:04:59.079Z,45.50
2022-08-14T07:07:28.791Z,43.90
2022-08-14T07:09:55.896Z,44.20
2022-08-14T07:12:54.838Z,43.50
2022-08-14T07:15:10.924Z,43.00
2022-08-14T07:17:51.897Z,43.20
2022-08-14T07:20:20.525Z,43.00
2022-08-14T07:23:05.142Z,43.10
2022-08-14T07:25:39.258Z,44.30
2022-08-14T07:28:43.201Z,45.50
2022-08-14T07:31:16.396Z,45.70
2022-08-14T07:33:48.609Z,46.10
2022-08-14T07:36:26.717Z,46.30
2022-08-14T07:38:56.584Z,46.00
2022-08-14T07:41:23.909Z,44.70
2022-08-14T07:43:55.868Z,43.30
2022-08-14T07:46:29.169Z,42.20
2022-08-14T07:48:57.074Z,40.50
2022-08-14T07:51:24.067Z,40.00
2022-08-14T07:53:57.229Z,38.60
2022-08-14T07:56:48.023Z,39.20
2022-08-14T07:59:12.727Z,39.80
2022-08-14T08:01:51.741Z,41.70
2022-08-14T08:04:24.164Z,42.20
2022-08-14T08:06:52.914Z,43.90
2022-08-14T08:09:31.852Z,45.20
2022-08-14T08:12:04.869Z,46.30
2022-08-14T08:14:56.939Z,47.60
2022-08-14T08:17:25.443Z,48.90
2022-08-14T08:19:52.362Z,49.90
2022-08-14T08:22:21.171Z,50.40
2022-08-14T08:24:50.237Z,51.00
2022-08-14T08:27:19.853Z,51.50
2022-08-14T08:29:50.743Z,51.90
2022-08-14T08:32:18.611Z,52.10
2022-08-14T08:34:47.073Z,52.50
2022-08-14T08:37:14.962Z,52.60
2022-08-14T08:40:02.630Z,52.70
2022-08-14T08:42:41.301Z,53.10
2022-08-14T08:45:17.420Z,53.00
2022-08-14T08:47:45.464Z,53.20
2022-08-14T08:50:23.343Z,53.70
2022-08-14T08:53:10.339Z,53.20
2022-08-14T08:55:43.273Z,53.30
2022-08-14T08:58:20.291Z,53.40
2022-08-14T09:00:54.757Z,53.60
2022-08-14T09:03:32.170Z,53.30
2022-08-14T09:06:53.720Z,53.00
2022-08-14T09:08:52.473Z,52.90
2022-08-14T09:11:21.454Z,53.10
2022-08-14T09:13:52.962Z,53.20
2022-08-14T09:16:26.034Z,53.40
2022-08-14T09:18:54.698Z,53.70
2022-08-14T09:21:24.047Z,53.60
2022-08-14T09:24:26.871Z,53.90
2022-08-14T09:26:49.283Z,54.20
2022-08-14T09:29:17.659Z,54.30
2022-08-14T09:31:53.714Z,54.50
2022-08-14T09:34:33.428Z,54.50
2022-08-14T09:37:27.001Z,55.20
2022-08-14T09:40:11.226Z,55.20
2022-08-14T09:43:14.182Z,55.60
2022-08-14T09:45:53.190Z,55.50
2022-08-14T09:48:27.497Z,55.80
2022-08-14T09:50:58.390Z,56.10
2022-08-14T09:54:19.525Z,56.60
2022-08-14T09:56:31.854Z,57.00
2022-08-14T09:59:15.221Z,57.00
2022-08-14T10:01:46.154Z,57.00
2022-08-14T10:04:36.576Z,57.40
2022-08-14T10:07:08.075Z,57.80
2022-08-14T10:09:59.836Z,57.50
2022-08-14T10:12:52.935Z,58.00
2022-08-14T10:15:29.791Z,58.00
2022-08-14T10:18:17.582Z,57.80
2022-08-14T10:20:52.895Z,57.80
2022-08-14T10:23:23.300Z,57.70
2022-08-14T10:25:54.401Z,57.90
2022-08-14T10:29:03.831Z,57.90
2022-08-14T10:31:25.754Z,57.90
2022-08-14T10:34:12.842Z,57.90
2022-08-14T10:36:50.177Z,57.80
2022-08-14T10:39:29.871Z,57.50
2022-08-14T10:42:16.273Z,57.50
2022-08-14T10:44:49.132Z,56.90
2022-08-14T10:47:41.602Z,56.50
2022-08-14T10:50:14.720Z,56.30
2022-08-14T10:52:43.140Z,56.70
2022-08-14T10:55:16.278Z,56.90
2022-08-14T10:57:51.499Z,56.90
2022-08-14T11:00:30.166Z,56.30
2022-08-14T11:03:10.890Z,56.40
2022-08-14T11:05:55.615Z,56.70
2022-08-14T11:08:33.943Z,56.80
2022-08-14T11:11:05.342Z,57.20
2022-08-14T11:13:32.581Z,57.20
2022-08-14T11:16:01.645Z,56.20
2022-08-14T11:18:35.837Z,56.50
2022-08-14T11:21:06.446Z,56.50
2022-08-14T11:23:40.975Z,56.50
2022-08-14T11:26:11.886Z,56.30
2022-08-14T11:28:47.916Z,56.40
2022-08-14T11:31:23.671Z,56.30
2022-08-14T11:33:55.344Z,56.30
2022-08-14T11:36:35.184Z,56.50
2022-08-14T11:39:33.782Z,56.60
2022-08-14T11:42:57.236Z,56.40
2022-08-14T11:44:59.874Z,56.60
2022-08-14T11:47:35.568Z,56.90
2022-08-14T11:50:33.685Z,56.90
2022-08-14T11:53:06.908Z,56.20
2022-08-14T11:55:39.279Z,56.00
2022-08-14T11:58:12.213Z,56.00
2022-08-14T12:00:54.134Z,56.20
2022-08-14T12:03:37.805Z,56.70
2022-08-14T12:06:29.619Z,56.60
2022-08-14T12:09:00.850Z,56.70
2022-08-14T12:11:44.326Z,56.40
2022-08-14T12:14:29.974Z,56.30
2022-08-14T12:17:04.148Z,55.90
2022-08-14T12:19:33.727Z,55.90
2022-08-14T12:22:02.757Z,55.90
2022-08-14T12:24:32.119Z,55.80
2022-08-14T12:27:04.222Z,55.70
2022-08-14T12:29:32.013Z,55.40
2022-08-14T12:32:08.911Z,54.70
2022-08-14T12:34:37.265Z,54.20
2022-08-14T12:37:08.858Z,53.70
2022-08-14T12:39:39.834Z,52.70
2022-08-14T12:42:08.053Z,52.60
2022-08-14T12:44:42.882Z,52.60
2022-08-14T12:47:17.828Z,52.30
2022-08-14T12:49:54.196Z,51.80
2022-08-14T12:52:43.163Z,52.00
2022-08-14T12:55:20.771Z,51.90
2022-08-14T12:57:53.442Z,52.00
2022-08-14T13:00:24.281Z,51.50
2022-08-14T13:02:56.794Z,51.40
2022-08-14T13:05:31.935Z,51.80
2022-08-14T13:08:03.699Z,52.00
2022-08-14T13:10:47.536Z,52.40
2022-08-14T13:13:20.860Z,52.60
2022-08-14T13:15:57.354Z,52.40
2022-08-14T13:18:27.854Z,52.20
2022-08-14T13:21:01.706Z,52.20
2022-08-14T13:23:36.409Z,52.50
2022-08-14T13:26:04.704Z,52.20
2022-08-14T13:28:34.575Z,51.70
2022-08-14T13:31:11.799Z,51.10
2022-08-14T13:33:40.790Z,51.10
2022-08-14T13:36:09.480Z,51.10
2022-08-14T13:38:37.149Z,51.10
2022-08-14T13:41:06.094Z,51.20
2022-08-14T13:43:36.971Z,51.10
2022-08-14T13:46:20.619Z,51.20
2022-08-14T13:48:52.754Z,51.30
2022-08-14T13:51:26.106Z,50.80
2022-08-14T13:54:10.238Z,50.50
2022-08-14T13:56:40.758Z,51.00
2022-08-14T13:59:09.668Z,50.70
2022-08-14T14:01:43.248Z,50.40
2022-08-14T14:04:23.143Z,50.60
2022-08-14T14:06:51.913Z,50.50
2022-08-14T14:09:37.675Z,50.10
2022-08-14T14:12:37.457Z,50.30
2022-08-14T14:15:06.529Z,50.00
2022-08-14T14:17:38.882Z,50.10
2022-08-14T14:20:11.365Z,50.30
2022-08-14T14:23:01.860Z,50.30
2022-08-14T14:25:38.689Z,50.30
2022-08-14T14:28:23.810Z,50.30
2022-08-14T14:30:57.147Z,50.30
2022-08-14T14:36:14.050Z,50.70
2022-08-14T14:38:44.224Z,51.00
2022-08-14T14:41:15.147Z,50.60
2022-08-14T14:43:48.784Z,50.80
2022-08-14T14:46:20.297Z,50.80
2022-08-14T14:48:54.055Z,50.60
2022-08-14T14:51:21.979Z,50.30
2022-08-14T14:53:49.244Z,50.30
2022-08-14T14:56:50.363Z,50.90
2022-08-14T14:59:03.473Z,50.10
2022-08-14T15:01:36.356Z,48.20
2022-08-14T15:04:08.062Z,48.20
2022-08-14T15:06:47.988Z,48.40
2022-08-14T15:09:18.040Z,47.40
2022-08-14T15:11:46.887Z,47.30
2022-08-14T15:14:54.643Z,47.00
2022-08-14T15:17:02.226Z,47.00
2022-08-14T15:19:29.626Z,46.90
2022-08-14T15:21:58.076Z,47.00
2022-08-14T15:24:26.943Z,46.80
2022-08-14T15:26:57.070Z,46.20
2022-08-14T15:29:25.944Z,46.00
2022-08-14T15:31:53.396Z,45.70
2022-08-14T15:34:43.401Z,45.70
2022-08-14T15:37:10.887Z,45.50
2022-08-14T15:39:41.519Z,45.60
2022-08-14T15:42:14.456Z,45.80
2022-08-14T15:44:57.753Z,46.20
2022-08-14T15:47:30.083Z,46.40
2022-08-14T15:50:02.886Z,46.00
2022-08-14T15:52:37.231Z,45.80
2022-08-14T15:55:12.989Z,45.50
2022-08-14T15:58:02.541Z,46.00
2022-08-14T16:00:51.987Z,46.70
2022-08-14T16:03:27.414Z,46.90
2022-08-14T16:06:11.030Z,47.20
2022-08-14T16:08:44.411Z,47.30
2022-08-14T16:11:12.903Z,47.30
2022-08-14T16:13:44.198Z,47.50
2022-08-14T16:16:49.813Z,47.00
2022-08-14T16:19:11.115Z,47.40
2022-08-14T16:22:02.232Z,47.40
2022-08-14T16:24:36.233Z,47.50
2022-08-14T16:27:38.978Z,47.40
2022-08-14T16:30:20.770Z,47.70
2022-08-14T16:32:55.019Z,47.70
2022-08-14T16:38:44.999Z,47.90
2022-08-14T16:41:23.240Z,48.00
2022-08-14T16:43:58.937Z,48.10
2022-08-14T16:46:28.043Z,48.10
2022-08-14T16:48:58.441Z,48.20
2022-08-14T16:51:30.985Z,48.40
2022-08-14T16:54:05.371Z,48.50
2022-08-14T16:56:52.434Z,48.60
2022-08-14T16:59:30.319Z,49.20
2022-08-14T17:02:01.432Z,49.70
2022-08-14T17:04:34.681Z,50.30
2022-08-14T17:07:13.618Z,51.10
2022-08-14T17:09:48.608Z,51.50
2022-08-14T17:12:35.142Z,52.00
2022-08-14T17:15:09.957Z,52.30
2022-08-14T17:17:40.669Z,52.50
2022-08-14T17:20:53.946Z,52.80
2022-08-14T17:23:11.358Z,52.90
2022-08-14T17:25:39.089Z,53.10
2022-08-14T17:28:52.394Z,53.20
2022-08-14T17:31:02.806Z,53.40
2022-08-14T17:33:44.311Z,53.50
2022-08-14T17:36:22.469Z,53.70
2022-08-14T17:39:11.868Z,53.80
2022-08-14T17:41:43.605Z,54.00
2022-08-14T17:44:34.018Z,54.10
2022-08-14T17:47:13.383Z,54.10
2022-08-14T17:49:51.940Z,54.20
2022-08-14T17:52:35.958Z,54.50
2022-08-14T17:55:12.705Z,54.60
2022-08-14T17:57:58.705Z,54.80
2022-08-14T18:00:26.281Z,55.50
2022-08-14T18:02:57.410Z,55.10
2022-08-14T18:06:07.525Z,55.20
2022-08-14T18:08:33.927Z,55.20
2022-08-14T18:11:02.369Z,55.20
2022-08-14T18:13:51.793Z,55.40
2022-08-14T18:16:20.566Z,55.70
2022-08-14T18:18:51.397Z,55.70
2022-08-14T18:21:41.815Z,55.80
2022-08-14T18:24:27.880Z,55.90
2022-08-14T18:27:28.360Z,56.20
2022-08-14T18:29:58.731Z,56.20
2022-08-14T18:32:31.590Z,56.50
2022-08-14T18:35:11.430Z,56.40
2022-08-14T18:37:42.538Z,56.60
2022-08-14T18:40:35.044Z,56.80
2022-08-14T18:43:04.954Z,56.90
2022-08-14T18:45:41.399Z,56.90
2022-08-14T18:48:19.782Z,56.90
2022-08-14T18:50:52.361Z,57.30
2022-08-14T18:53:59.557Z,57.50
2022-08-14T18:57:00.131Z,57.60
2022-08-14T18:59:40.319Z,57.60
2022-08-14T19:02:42.668Z,57.80
2022-08-14T19:05:11.000Z,57.70
2022-08-14T19:07:39.477Z,57.90
2022-08-14T19:10:10.191Z,57.90
2022-08-14T19:12:53.110Z,58.10
2022-08-14T19:15:25.925Z,58.20
2022-08-14T19:18:14.675Z,58.20
2022-08-14T19:20:52.894Z,58.40
2022-08-14T19:23:43.054Z,58.70
2022-08-14T19:26:34.197Z,58.80
2022-08-14T19:29:25.990Z,58.90
2022-08-14T19:32:25.384Z,59.10
2022-08-14T19:34:54.786Z,59.40
2022-08-14T19:37:52.733Z,59.60
2022-08-14T19:40:41.943Z,59.50
2022-08-14T19:43:22.534Z,59.80
2022-08-14T19:46:37.633Z,60.00
2022-08-14T19:48:57.268Z,60.30
2022-08-14T19:51:25.121Z,60.40
2022-08-14T19:54:13.206Z,60.80
2022-08-14T19:56:46.028Z,60.70
2022-08-14T19:59:19.240Z,61.10
2022-08-14T20:01:51.126Z,61.00
2022-08-14T20:04:46.767Z,60.80
2022-08-14T20:07:58.887Z,60.80
2022-08-14T20:11:12.582Z,61.10
2022-08-14T20:13:29.346Z,61.00
2022-08-14T20:16:06.595Z,61.10
2022-08-14T20:18:50.199Z,61.00
2022-08-14T20:21:18.359Z,61.30
2022-08-14T20:23:48.136Z,61.70
2022-08-14T20:26:31.814Z,61.30
2022-08-14T20:29:05.334Z,61.60
2022-08-14T20:31:37.745Z,61.50
2022-08-14T20:34:24.488Z,61.60
2022-08-14T20:37:22.105Z,61.80
2022-08-14T20:39:54.837Z,61.90
2022-08-14T20:42:49.390Z,62.10
2022-08-14T20:45:18.967Z,62.20
2022-08-14T20:48:01.082Z,62.40
2022-08-14T20:50:29.972Z,62.70
2022-08-14T20:53:05.668Z,63.60
2022-08-14T20:55:41.501Z,63.50
2022-08-14T20:58:38.588Z,64.00
2022-08-14T21:01:19.664Z,64.30
2022-08-14T21:03:57.939Z,64.40
2022-08-14T21:07:22.917Z,63.80
2022-08-14T21:10:05.327Z,64.30
2022-08-14T21:12:34.161Z,64.90
2022-08-14T21:15:03.686Z,65.40
2022-08-14T21:17:37.681Z,65.70
2022-08-14T21:20:25.224Z,65.30
2022-08-14T21:22:54.119Z,65.70
2022-08-14T21:25:23.860Z,66.30
2022-08-14T21:27:57.153Z,67.00
2022-08-14T21:30:46.948Z,67.00
2022-08-14T21:33:13.849Z,67.30
2022-08-14T21:35:46.706Z,66.40
2022-08-14T21:38:17.891Z,66.30
2022-08-14T21:40:49.062Z,66.20
2022-08-14T21:43:22.939Z,66.70
2022-08-14T21:45:54.071Z,66.80
2022-08-14T21:48:26.490Z,66.60
2022-08-14T21:51:01.828Z,66.80
2022-08-14T21:53:57.956Z,67.40
2022-08-14T21:56:38.758Z,67.80
2022-08-14T21:59:22.738Z,67.60
2022-08-14T22:02:00.489Z,67.30
2022-08-14T22:04:40.081Z,67.80
2022-08-14T22:07:12.558Z,67.90
2022-08-14T22:09:44.117Z,68.20
2022-08-14T22:12:57.454Z,69.60
2022-08-14T22:15:01.773Z,70.20
2022-08-14T22:17:34.230Z,70.30
2022-08-14T22:20:05.030Z,71.10
2022-08-14T22:22:32.483Z,71.10
2022-08-14T22:25:00.040Z,70.80
2022-08-14T22:27:29.723Z,70.90
2022-08-14T22:30:00.069Z,70.90
2022-08-14T22:32:35.288Z,70.40
2022-08-14T22:35:15.738Z,70.50
2022-08-14T22:37:44.966Z,70.50
2022-08-14T22:40:54.683Z,70.20
2022-08-14T22:43:08.066Z,70.90
2022-08-14T22:45:37.848Z,71.70
2022-08-14T22:48:11.163Z,72.00
2022-08-14T22:50:48.709Z,71.70
2022-08-14T22:53:16.202Z,72.60
2022-08-14T22:55:43.537Z,73.20
2022-08-14T22:58:11.367Z,73.40
2022-08-14T23:00:45.449Z,74.00
2022-08-14T23:03:17.455Z,74.50
2022-08-14T23:05:51.731Z,74.70
2022-08-14T23:08:58.412Z,74.90
2022-08-14T23:11:10.048Z,75.10
2022-08-14T23:13:43.702Z,75.30
2022-08-14T23:16:20.516Z,75.30
2022-08-14T23:18:53.961Z,75.20
2022-08-14T23:21:24.508Z,75.20
2022-08-14T23:23:55.118Z,75.30
2022-08-14T23:26:48.484Z,75.30
2022-08-14T23:29:15.652Z,74.90
2022-08-14T23:31:45.208Z,74.90
2022-08-14T23:34:20.475Z,74.60
2022-08-14T23:36:53.216Z,74.50
2022-08-14T23:39:29.963Z,74.40
2022-08-14T23:42:03.959Z,74.40
2022-08-14T23:44:34.974Z,74.30
2022-08-14T23:47:11.539Z,74.30
2022-08-14T23:50:01.180Z,74.10
2022-08-14T23:53:04.042Z,73.90
2022-08-14T23:55:28.476Z,74.10
2022-08-14T23:57:58.034Z,74.40
